Time;durP1;ratioP1;P1;durP2;ratioP2;P2;SDS_P1;SDS_P2;PMS_P1;PMS_P2;Temp;Humidity;BMP_temperature;BMP_pressure;BME280_temperature;BME280_humidity;BME280_pressure;Samples;Min_cycle;Max_cycle;Signal;HPM_P1;HPM_P2
2020/12/08 00:24:00;;;;;;;22.55;12.90;;;;;;;;;;5564086;23;20038;-76
2020/12/08 00:26:26;;;;;;;20.00;12.75;;;;;;;;;;4960716;28;20050;-77
2020/12/08 00:28:52;;;;;;;24.15;12.27;;;;;;;;;;4976246;28;20497;-77
2020/12/08 00:31:24;;;;;;;22.58;13.65;;;;;;;;;;4944684;28;20096;-77
2020/12/08 00:33:50;;;;;;;24.73;13.85;;;;;;;;;;4960609;28;20539;-77
2020/12/08 00:36:16;;;;;;;23.67;13.07;;;;;;;;;;4960318;28;20058;-76
2020/12/08 00:38:42;;;;;;;21.60;12.63;;;;;;;;;;4960360;28;20050;-76
2020/12/08 00:41:15;;;;;;;21.35;13.32;;;;;;;;;;4976338;28;20046;-76
2020/12/08 00:43:41;;;;;;;21.10;13.02;;;;;;;;;;4960926;28;20089;-76
2020/12/08 00:46:14;;;;;;;22.35;13.65;;;;;;;;;;4960247;28;20085;-76
2020/12/08 00:48:41;;;;;;;22.70;13.25;;;;;;;;;;4976794;28;20505;-76
2020/12/08 00:51:08;;;;;;;24.42;13.45;;;;;;;;;;4940777;28;20109;-76
2020/12/08 00:53:34;;;;;;;19.38;13.00;;;;;;;;;;4941037;28;20502;-76
2020/12/08 00:56:00;;;;;;;23.17;13.70;;;;;;;;;;4924837;28;20054;-76
2020/12/08 00:58:26;;;;;;;22.17;13.18;;;;;;;;;;4956824;28;20113;-76
2020/12/08 01:00:53;;;;;;;20.67;12.77;;;;;;;;;;4940724;28;20883;-76
2020/12/08 01:03:19;;;;;;;21.00;12.20;;;;;;;;;;4956856;28;20469;-76
2020/12/08 01:05:45;;;;;;;20.45;11.88;;;;;;;;;;4940565;28;20058;-76
2020/12/08 01:08:12;;;;;;;23.70;14.30;;;;;;;;;;4940681;28;20097;-76
2020/12/08 01:10:38;;;;;;;22.25;15.07;;;;;;;;;;4960190;28;20042;-76
2020/12/08 01:13:04;;;;;;;22.73;13.88;;;;;;;;;;4959635;28;20054;-76
2020/12/08 01:15:30;;;;;;;24.75;15.27;;;;;;;;;;4959583;28;20050;-77
2020/12/08 01:17:57;;;;;;;24.17;13.55;;;;;;;;;;4975814;28;20113;-77
2020/12/08 01:20:23;;;;;;;24.13;14.27;;;;;;;;;;4959668;28;20050;-77
2020/12/08 01:22:51;;;;;;;23.90;13.43;;;;;;;;;;4956156;28;20047;-77
2020/12/08 01:25:18;;;;;;;24.73;14.05;;;;;;;;;;4955949;28;20059;-77
2020/12/08 01:27:44;;;;;;;20.83;13.15;;;;;;;;;;4973589;28;20121;-77
2020/12/08 01:30:10;;;;;;;24.80;14.57;;;;;;;;;;4940418;28;20134;-77
2020/12/08 01:32:36;;;;;;;22.90;13.45;;;;;;;;;;4945421;28;20050;-77
2020/12/08 01:35:02;;;;;;;22.55;13.15;;;;;;;;;;4973248;28;20055;-77
2020/12/08 01:37:28;;;;;;;21.45;13.32;;;;;;;;;;4956027;28;20417;-77
2020/12/08 01:39:54;;;;;;;26.95;14.93;;;;;;;;;;4956370;28;20056;-77
2020/12/08 01:42:20;;;;;;;21.45;13.18;;;;;;;;;;4973179;28;20132;-77
2020/12/08 01:44:51;;;;;;;19.23;12.35;;;;;;;;;;4955956;28;20109;-77
2020/12/08 01:47:17;;;;;;;22.58;13.73;;;;;;;;;;4971604;28;20082;-77
2020/12/08 01:49:44;;;;;;;24.50;14.38;;;;;;;;;;4955999;28;20464;-77
2020/12/08 01:52:14;;;;;;;21.80;13.20;;;;;;;;;;4971664;28;20047;-76
2020/12/08 01:54:45;;;;;;;25.75;13.98;;;;;;;;;;4955746;28;20078;-77
2020/12/08 01:57:13;;;;;;;25.08;13.90;;;;;;;;;;4955858;28;20515;-77
2020/12/08 01:59:39;;;;;;;25.02;15.32;;;;;;;;;;4955834;28;20046;-77
2020/12/08 02:02:05;;;;;;;24.85;14.77;;;;;;;;;;4955774;28;20054;-77
2020/12/08 02:04:31;;;;;;;27.25;14.70;;;;;;;;;;4955686;28;20089;-77
2020/12/08 02:06:57;;;;;;;27.23;14.48;;;;;;;;;;4955393;28;20582;-77
2020/12/08 02:09:24;;;;;;;25.70;15.27;;;;;;;;;;4955877;28;20046;-77
2020/12/08 02:11:50;;;;;;;26.35;15.07;;;;;;;;;;4959819;28;20074;-77
2020/12/08 02:14:16;;;;;;;29.75;16.40;;;;;;;;;;4958791;28;20109;-77
2020/12/08 02:16:42;;;;;;;29.33;15.63;;;;;;;;;;4974573;28;20050;-77
2020/12/08 02:19:08;;;;;;;25.90;15.43;;;;;;;;;;4942996;28;20050;-77
2020/12/08 02:21:34;;;;;;;26.08;15.48;;;;;;;;;;4958988;28;20046;-77
2020/12/08 02:24:01;;;;;;;26.02;16.00;;;;;;;;;;4958582;28;20193;-77
2020/12/08 02:26:27;;;;;;;27.00;16.17;;;;;;;;;;4958592;28;20050;-77
2020/12/08 02:28:54;;;;;;;28.08;15.52;;;;;;;;;;4942775;28;20093;-77
2020/12/08 02:31:21;;;;;;;23.38;14.18;;;;;;;;;;4974898;28;20081;-76
2020/12/08 02:33:47;;;;;;;25.27;15.05;;;;;;;;;;4959914;28;20054;-76
2020/12/08 02:36:13;;;;;;;27.75;14.73;;;;;;;;;;4962534;28;20062;-77
2020/12/08 02:38:39;;;;;;;24.80;15.75;;;;;;;;;;4962581;28;20051;-77
2020/12/08 02:41:05;;;;;;;25.15;15.30;;;;;;;;;;4962294;28;20464;-77
2020/12/08 02:43:32;;;;;;;25.30;14.90;;;;;;;;;;4962575;28;20054;-76
2020/12/08 02:46:02;;;;;;;25.63;15.27;;;;;;;;;;4962326;28;20449;-76
2020/12/08 02:48:28;;;;;;;26.10;15.63;;;;;;;;;;4946677;28;20046;-76
2020/12/08 02:50:58;;;;;;;26.10;15.57;;;;;;;;;;4959242;28;20133;-76
2020/12/08 02:53:25;;;;;;;28.35;16.55;;;;;;;;;;4943163;28;20051;-76
2020/12/08 02:55:51;;;;;;;26.02;15.68;;;;;;;;;;4942791;28;20494;-76
2020/12/08 02:58:17;;;;;;;27.58;16.33;;;;;;;;;;4942979;28;20580;-76
2020/12/08 03:00:43;;;;;;;31.05;16.55;;;;;;;;;;4928941;28;20055;-76
2020/12/08 03:03:09;;;;;;;27.45;15.93;;;;;;;;;;4978032;28;20046;-76
2020/12/08 03:05:35;;;;;;;28.70;15.27;;;;;;;;;;4961714;28;20056;-76
2020/12/08 03:08:01;;;;;;;26.77;16.10;;;;;;;;;;4978141;28;20054;-76
2020/12/08 03:10:27;;;;;;;29.40;16.75;;;;;;;;;;4962247;28;20061;-76
2020/12/08 03:12:54;;;;;;;29.33;15.75;;;;;;;;;;4977604;28;20105;-76
2020/12/08 03:15:20;;;;;;;29.30;16.98;;;;;;;;;;4977808;28;20124;-76
2020/12/08 03:17:46;;;;;;;27.70;15.35;;;;;;;;;;4978195;28;20460;-76
2020/12/08 03:20:12;;;;;;;30.33;16.80;;;;;;;;;;4961707;28;20050;-76
2020/12/08 03:22:40;;;;;;;29.30;15.38;;;;;;;;;;4978108;28;20051;-76
2020/12/08 03:25:06;;;;;;;27.33;14.82;;;;;;;;;;4961511;28;20058;-76
2020/12/08 03:27:32;;;;;;;26.98;16.35;;;;;;;;;;4942310;28;20086;-76
2020/12/08 03:29:58;;;;;;;28.63;15.80;;;;;;;;;;4958384;28;20485;-76
2020/12/08 03:32:24;;;;;;;29.58;16.13;;;;;;;;;;4958246;28;20078;-76
2020/12/08 03:34:50;;;;;;;30.60;17.02;;;;;;;;;;4958089;28;20462;-76
2020/12/08 03:37:16;;;;;;;27.42;16.30;;;;;;;;;;4985799;28;20590;-76
2020/12/08 03:39:42;;;;;;;32.15;16.70;;;;;;;;;;4977574;28;20085;-76
2020/12/08 03:42:08;;;;;;;29.23;17.10;;;;;;;;;;4961274;28;20084;-76
2020/12/08 03:44:35;;;;;;;30.50;16.65;;;;;;;;;;4960903;28;20056;-76
2020/12/08 03:47:03;;;;;;;35.25;16.83;;;;;;;;;;4993851;28;20066;-76
2020/12/08 03:49:29;;;;;;;33.03;18.25;;;;;;;;;;4957851;28;20050;-76
2020/12/08 03:51:56;;;;;;;32.58;17.33;;;;;;;;;;4975116;28;20050;-76
2020/12/08 03:54:22;;;;;;;33.53;18.15;;;;;;;;;;4941926;28;20465;-76
2020/12/08 03:56:48;;;;;;;34.15;17.42;;;;;;;;;;4957727;28;20055;-76
2020/12/08 03:59:18;;;;;;;35.88;18.20;;;;;;;;;;4942243;28;20086;-77
2020/12/08 04:01:48;;;;;;;36.53;18.17;;;;;;;;;;4942609;28;20042;-77
2020/12/08 04:04:15;;;;;;;35.03;19.15;;;;;;;;;;4941966;28;20399;-77
2020/12/08 04:06:41;;;;;;;37.00;18.05;;;;;;;;;;4941603;28;20137;-76
2020/12/08 04:09:08;;;;;;;34.40;17.92;;;;;;;;;;4957671;28;20050;-76
2020/12/08 04:11:34;;;;;;;35.53;17.02;;;;;;;;;;4957548;28;20097;-77
2020/12/08 04:14:03;;;;;;;34.03;17.48;;;;;;;;;;4941425;28;20551;-76
2020/12/08 04:16:31;;;;;;;33.15;18.35;;;;;;;;;;4957386;28;20067;-76
2020/12/08 04:18:58;;;;;;;35.78;18.73;;;;;;;;;;4942175;28;20055;-76
2020/12/08 04:21:26;;;;;;;33.55;18.42;;;;;;;;;;4941657;28;20549;-76
2020/12/08 04:24:02;;;;;;;33.97;17.70;;;;;;;;;;4941456;28;20046;-76
2020/12/08 04:26:32;;;;;;;36.17;18.23;;;;;;;;;;4942354;28;20055;-76
2020/12/08 04:28:58;;;;;;;35.97;19.17;;;;;;;;;;4948281;28;20078;-76
2020/12/08 04:31:25;;;;;;;35.22;17.83;;;;;;;;;;4944643;28;20050;-76
2020/12/08 04:33:52;;;;;;;33.60;17.35;;;;;;;;;;4960151;28;20469;-77
2020/12/08 04:36:20;;;;;;;32.53;17.92;;;;;;;;;;4976568;28;20050;-77
2020/12/08 04:38:47;;;;;;;32.03;16.60;;;;;;;;;;4944701;28;20050;-77
2020/12/08 04:41:24;;;;;;;35.35;18.40;;;;;;;;;;4976386;28;20054;-77
2020/12/08 04:43:53;;;;;;;32.15;16.40;;;;;;;;;;4960181;28;20138;-77
2020/12/08 04:46:21;;;;;;;32.38;17.63;;;;;;;;;;4960964;28;20085;-77
2020/12/08 04:48:48;;;;;;;33.30;17.50;;;;;;;;;;4944528;28;20046;-77
2020/12/08 04:51:14;;;;;;;33.33;17.05;;;;;;;;;;4960325;28;20128;-76
2020/12/08 04:53:40;;;;;;;33.70;18.20;;;;;;;;;;4976153;28;20090;-76
2020/12/08 04:56:07;;;;;;;38.40;18.90;;;;;;;;;;4959834;28;20509;-76
2020/12/08 04:58:33;;;;;;;40.08;19.20;;;;;;;;;;4959981;28;20109;-76
2020/12/08 05:01:01;;;;;;;35.22;18.60;;;;;;;;;;4960113;28;20051;-76
2020/12/08 05:03:30;;;;;;;36.60;18.35;;;;;;;;;;4993412;28;20058;-76
2020/12/08 05:05:56;;;;;;;36.85;19.98;;;;;;;;;;4995339;28;20100;-76
2020/12/08 05:08:22;;;;;;;38.13;19.50;;;;;;;;;;4978663;28;20567;-76
2020/12/08 05:10:48;;;;;;;38.03;17.70;;;;;;;;;;4959870;28;20050;-76
2020/12/08 05:15:59;;;;;;;35.10;18.85;;;;;;;;;;4971525;28;20639;-75
2020/12/08 05:18:25;;;;;;;35.67;18.13;;;;;;;;;;4973595;28;20421;-76
2020/12/08 05:20:51;;;;;;;37.92;17.88;;;;;;;;;;4972318;28;20051;-76
2020/12/08 05:23:17;;;;;;;35.55;18.50;;;;;;;;;;4973322;28;20109;-75
2020/12/08 05:25:46;;;;;;;37.50;18.92;;;;;;;;;;4973391;28;20059;-75
2020/12/08 05:28:19;;;;;;;37.45;17.65;;;;;;;;;;4972273;28;20366;-75
2020/12/08 05:30:46;;;;;;;35.75;18.40;;;;;;;;;;4956182;28;20051;-75
2020/12/08 05:33:17;;;;;;;35.08;19.02;;;;;;;;;;4956069;28;20059;-75
2020/12/08 05:35:46;;;;;;;37.28;17.77;;;;;;;;;;4972346;28;20050;-75
2020/12/08 05:38:14;;;;;;;36.92;19.98;;;;;;;;;;4965778;28;20047;-76
2020/12/08 05:40:44;;;;;;;30.92;16.33;;;;;;;;;;4937263;28;20502;-75
2020/12/08 05:43:11;;;;;;;36.92;18.67;;;;;;;;;;4958355;28;20458;-75
2020/12/08 05:45:37;;;;;;;37.80;18.40;;;;;;;;;;4952576;29;20055;-76
2020/12/08 05:48:04;;;;;;;38.08;19.38;;;;;;;;;;4952837;29;20054;-75
2020/12/08 05:50:30;;;;;;;35.10;18.33;;;;;;;;;;4952673;29;20055;-75
2020/12/08 05:53:00;;;;;;;34.78;17.98;;;;;;;;;;4953708;29;20462;-75
2020/12/08 05:55:30;;;;;;;36.78;17.77;;;;;;;;;;4952413;29;20047;-76
2020/12/08 05:58:06;;;;;;;37.95;18.95;;;;;;;;;;4952486;29;20462;-75
2020/12/08 06:00:32;;;;;;;34.67;17.55;;;;;;;;;;4956135;28;20074;-75
2020/12/08 06:03:11;;;;;;;34.92;18.95;;;;;;;;;;4962014;28;20071;-75
2020/12/08 06:05:38;;;;;;;39.55;19.40;;;;;;;;;;4953560;29;20074;-75
2020/12/08 06:08:40;;;;;;;36.17;19.48;;;;;;;;;;4951563;29;20075;-76
2020/12/08 06:11:06;;;;;;;36.35;18.50;;;;;;;;;;4961059;28;20042;-75
2020/12/08 06:13:33;;;;;;;36.15;17.83;;;;;;;;;;4958759;28;20098;-75
2020/12/08 06:16:01;;;;;;;31.20;17.95;;;;;;;;;;4946426;28;20092;-76
2020/12/08 06:18:36;;;;;;;34.15;18.35;;;;;;;;;;4959881;28;20114;-76
2020/12/08 06:21:23;;;;;;;37.03;18.50;;;;;;;;;;4962522;28;20051;-76
2020/12/08 06:23:52;;;;;;;36.63;19.48;;;;;;;;;;4961593;28;20688;-76
2020/12/08 06:26:37;;;;;;;35.78;18.92;;;;;;;;;;4957358;28;20122;-76
2020/12/08 06:29:08;;;;;;;36.50;17.95;;;;;;;;;;4937121;29;20437;-75
2020/12/08 06:31:41;;;;;;;35.65;17.60;;;;;;;;;;4951958;29;20043;-75
2020/12/08 06:34:08;;;;;;;34.75;17.83;;;;;;;;;;4951986;29;20474;-75
2020/12/08 06:36:34;;;;;;;37.38;18.60;;;;;;;;;;4951838;29;20056;-75
2020/12/08 06:39:04;;;;;;;35.67;18.52;;;;;;;;;;4953217;29;20117;-75
2020/12/08 06:41:35;;;;;;;36.30;18.67;;;;;;;;;;4952195;29;20051;-75
2020/12/08 06:44:03;;;;;;;36.92;19.10;;;;;;;;;;4936593;29;20078;-76
2020/12/08 06:46:32;;;;;;;38.38;18.27;;;;;;;;;;4936353;29;20051;-75
2020/12/08 06:49:03;;;;;;;40.15;20.73;;;;;;;;;;4936174;29;20486;-76
2020/12/08 06:51:30;;;;;;;39.95;19.42;;;;;;;;;;4953324;29;20506;-76
2020/12/08 06:53:58;;;;;;;37.08;20.00;;;;;;;;;;4936216;29;20134;-74
2020/12/08 06:56:29;;;;;;;40.13;21.25;;;;;;;;;;4936501;29;20078;-74
2020/12/08 06:58:55;;;;;;;39.97;20.85;;;;;;;;;;4934390;29;20087;-74
2020/12/08 07:01:22;;;;;;;42.60;22.00;;;;;;;;;;4950095;29;20057;-74
2020/12/08 07:03:48;;;;;;;41.92;20.38;;;;;;;;;;4951133;29;20048;-75
2020/12/08 07:06:14;;;;;;;41.65;20.90;;;;;;;;;;4934985;29;20094;-74
2020/12/08 07:08:44;;;;;;;40.75;20.70;;;;;;;;;;4962371;28;20046;-74
2020/12/08 07:11:21;;;;;;;41.40;19.67;;;;;;;;;;4971212;28;20112;-74
2020/12/08 07:14:06;;;;;;;45.53;21.73;;;;;;;;;;4976835;28;20034;-74
2020/12/08 07:16:37;;;;;;;41.55;20.48;;;;;;;;;;4954152;28;20421;-74
2020/12/08 07:19:05;;;;;;;48.10;23.05;;;;;;;;;;4970730;28;20085;-74
2020/12/08 07:21:31;;;;;;;42.33;19.48;;;;;;;;;;4973101;28;20164;-74
2020/12/08 07:24:08;;;;;;;39.15;19.55;;;;;;;;;;4973167;28;20055;-74
2020/12/08 07:26:34;;;;;;;40.55;20.25;;;;;;;;;;4972261;28;20112;-74
2020/12/08 07:29:00;;;;;;;37.88;18.95;;;;;;;;;;4974029;28;20046;-74
2020/12/08 07:31:29;;;;;;;38.78;18.90;;;;;;;;;;4973972;28;20054;-74
2020/12/08 07:33:55;;;;;;;38.63;20.17;;;;;;;;;;4956702;28;20047;-73
2020/12/08 07:36:28;;;;;;;38.28;19.88;;;;;;;;;;4956652;28;20054;-73
2020/12/08 07:38:55;;;;;;;34.78;17.80;;;;;;;;;;4974078;28;20109;-73
2020/12/08 07:41:23;;;;;;;37.65;20.08;;;;;;;;;;4972670;28;20142;-73
2020/12/08 07:43:50;;;;;;;38.75;20.10;;;;;;;;;;4972184;28;20593;-74
2020/12/08 07:46:27;;;;;;;37.45;19.83;;;;;;;;;;4956157;28;20050;-74
2020/12/08 07:49:09;;;;;;;33.42;18.67;;;;;;;;;;4972121;28;20560;-75
2020/12/08 07:51:36;;;;;;;32.78;18.23;;;;;;;;;;4958250;28;20078;-77
2020/12/08 07:54:04;;;;;;;33.20;17.73;;;;;;;;;;4958591;28;20138;-73
2020/12/08 07:56:32;;;;;;;32.17;17.83;;;;;;;;;;4960167;28;20103;-74
2020/12/08 07:58:59;;;;;;;35.28;17.40;;;;;;;;;;4962547;28;20057;-74
2020/12/08 08:01:25;;;;;;;37.95;19.05;;;;;;;;;;4964777;28;20055;-71
2020/12/08 08:03:52;;;;;;;35.63;19.65;;;;;;;;;;4959618;28;20051;-71
2020/12/08 08:06:19;;;;;;;33.47;18.25;;;;;;;;;;4958790;28;20114;-74
2020/12/08 08:08:46;;;;;;;34.53;19.00;;;;;;;;;;4958272;28;20098;-75
2020/12/08 08:11:14;;;;;;;31.65;17.88;;;;;;;;;;4945840;28;20051;-77
2020/12/08 08:13:40;;;;;;;36.60;19.33;;;;;;;;;;4958974;28;20047;-75
2020/12/08 08:16:13;;;;;;;37.03;19.08;;;;;;;;;;4957056;28;20063;-75
2020/12/08 08:18:40;;;;;;;37.22;19.02;;;;;;;;;;4961402;28;20079;-75
2020/12/08 08:21:07;;;;;;;32.90;17.27;;;;;;;;;;4958639;28;20130;-71
2020/12/08 08:23:33;;;;;;;40.38;19.58;;;;;;;;;;4963272;28;20047;-72
2020/12/08 08:26:03;;;;;;;35.17;18.98;;;;;;;;;;4957014;28;20082;-72
2020/12/08 08:28:29;;;;;;;36.20;18.88;;;;;;;;;;4958740;28;20083;-74
2020/12/08 08:30:55;;;;;;;33.83;18.13;;;;;;;;;;4958288;28;20098;-76
2020/12/08 08:33:22;;;;;;;34.15;18.15;;;;;;;;;;4958324;28;20051;-73
2020/12/08 08:35:48;;;;;;;35.25;18.33;;;;;;;;;;4942963;28;20051;-75
2020/12/08 08:38:14;;;;;;;35.75;17.48;;;;;;;;;;4958167;28;20117;-74
2020/12/08 08:40:40;;;;;;;35.92;18.58;;;;;;;;;;4943727;28;20078;-74
2020/12/08 08:43:06;;;;;;;36.72;18.58;;;;;;;;;;4960037;28;20093;-72
2020/12/08 08:45:32;;;;;;;35.60;19.60;;;;;;;;;;4971509;28;20498;-75
2020/12/08 08:47:58;;;;;;;33.42;18.48;;;;;;;;;;4962719;28;20057;-75
2020/12/08 08:50:25;;;;;;;39.75;17.95;;;;;;;;;;4961270;28;20506;-75
2020/12/08 08:52:51;;;;;;;35.17;18.58;;;;;;;;;;4960141;28;20067;-75
2020/12/08 08:55:17;;;;;;;39.05;18.52;;;;;;;;;;4957499;28;20391;-76
2020/12/08 08:57:44;;;;;;;33.53;18.63;;;;;;;;;;4958425;28;20473;-76
2020/12/08 09:00:11;;;;;;;36.13;18.40;;;;;;;;;;4960423;28;20125;-75
2020/12/08 09:02:37;;;;;;;33.58;17.17;;;;;;;;;;4961992;28;20505;-76
2020/12/08 09:05:05;;;;;;;36.78;19.20;;;;;;;;;;4961560;28;20109;-77
2020/12/08 09:07:31;;;;;;;32.75;16.95;;;;;;;;;;4959943;28;20055;-76
2020/12/08 09:09:57;;;;;;;33.13;18.08;;;;;;;;;;4961065;28;20553;-76
2020/12/08 09:12:24;;;;;;;32.33;16.77;;;;;;;;;;4942813;28;20073;-76
2020/12/08 09:14:53;;;;;;;32.25;17.77;;;;;;;;;;4943065;28;20055;-75
2020/12/08 09:17:19;;;;;;;31.90;17.55;;;;;;;;;;4961222;28;20417;-76
2020/12/08 09:19:45;;;;;;;29.58;16.27;;;;;;;;;;4959032;28;20059;-76
2020/12/08 09:22:11;;;;;;;33.78;17.73;;;;;;;;;;4959961;28;20636;-75
2020/12/08 09:24:38;;;;;;;29.73;16.13;;;;;;;;;;4958113;28;20077;-74
2020/12/08 09:27:06;;;;;;;28.52;16.63;;;;;;;;;;4962854;28;20074;-76
2020/12/08 09:29:33;;;;;;;27.65;15.75;;;;;;;;;;4943535;28;20047;-76
2020/12/08 09:31:59;;;;;;;27.15;16.77;;;;;;;;;;4943727;28;20055;-76
2020/12/08 09:34:26;;;;;;;27.95;16.63;;;;;;;;;;4964241;28;20086;-76
2020/12/08 09:36:53;;;;;;;28.17;16.20;;;;;;;;;;4959533;28;20470;-75
2020/12/08 09:39:19;;;;;;;27.05;16.05;;;;;;;;;;4957730;28;20083;-76
2020/12/08 09:41:45;;;;;;;28.33;15.70;;;;;;;;;;4957837;28;20054;-76
2020/12/08 09:44:12;;;;;;;29.55;16.60;;;;;;;;;;4957628;28;20051;-76
2020/12/08 09:46:38;;;;;;;26.58;15.05;;;;;;;;;;4945536;28;20106;-76
2020/12/08 09:49:05;;;;;;;28.35;15.82;;;;;;;;;;4957140;28;20079;-76
2020/12/08 09:51:31;;;;;;;27.65;15.70;;;;;;;;;;4960899;28;20050;-74
2020/12/08 09:53:58;;;;;;;27.67;15.80;;;;;;;;;;4958732;28;20106;-74
2020/12/08 09:56:24;;;;;;;25.45;15.55;;;;;;;;;;4960017;28;20054;-75
2020/12/08 09:58:52;;;;;;;25.55;15.30;;;;;;;;;;4958271;28;20106;-70
2020/12/08 10:01:32;;;;;;;26.65;15.45;;;;;;;;;;4960456;28;20058;-74
2020/12/08 10:03:59;;;;;;;26.92;15.90;;;;;;;;;;4961793;28;20070;-75
2020/12/08 10:06:25;;;;;;;25.55;14.57;;;;;;;;;;4954749;28;20073;-69
2020/12/08 10:08:55;;;;;;;24.30;15.18;;;;;;;;;;4954283;28;20467;-73
2020/12/08 10:11:22;;;;;;;27.48;16.10;;;;;;;;;;4962187;28;20444;-71
2020/12/08 10:13:50;;;;;;;28.48;15.90;;;;;;;;;;4958680;28;20422;-74
2020/12/08 10:16:27;;;;;;;28.02;16.08;;;;;;;;;;4956912;28;20584;-75
2020/12/08 10:18:54;;;;;;;26.08;14.85;;;;;;;;;;4957931;28;20063;-75
2020/12/08 10:21:24;;;;;;;23.20;15.00;;;;;;;;;;4937092;28;20159;-72
2020/12/08 10:23:51;;;;;;;23.48;13.55;;;;;;;;;;4956057;28;20499;-70
2020/12/08 10:26:19;;;;;;;23.08;13.63;;;;;;;;;;4957615;28;20054;-76
2020/12/08 10:28:45;;;;;;;27.23;15.88;;;;;;;;;;4957009;28;20502;-74
2020/12/08 10:31:17;;;;;;;24.70;14.80;;;;;;;;;;4958603;28;20054;-72
2020/12/08 10:33:44;;;;;;;24.70;14.82;;;;;;;;;;4958524;28;20046;-72
2020/12/08 10:36:11;;;;;;;23.63;14.45;;;;;;;;;;4959999;28;20059;-74
2020/12/08 10:38:37;;;;;;;22.60;13.90;;;;;;;;;;4943535;28;20053;-75
2020/12/08 10:41:11;;;;;;;21.95;13.38;;;;;;;;;;4946551;28;20046;-79
2020/12/08 10:43:39;;;;;;;21.80;12.75;;;;;;;;;;4933988;28;20137;-77
2020/12/08 10:46:05;;;;;;;19.50;12.70;;;;;;;;;;4961896;28;20074;-75
2020/12/08 10:48:32;;;;;;;21.10;13.02;;;;;;;;;;4959167;28;20057;-73
2020/12/08 10:50:58;;;;;;;23.98;12.52;;;;;;;;;;4949256;28;20059;-75
2020/12/08 10:53:24;;;;;;;18.08;11.85;;;;;;;;;;4952665;28;20046;-73
2020/12/08 10:55:50;;;;;;;21.33;12.73;;;;;;;;;;4971067;28;20047;-72
2020/12/08 10:58:18;;;;;;;22.48;13.70;;;;;;;;;;4963137;28;20058;-71
2020/12/08 11:00:44;;;;;;;21.10;13.40;;;;;;;;;;4961146;28;20395;-73
2020/12/08 11:03:10;;;;;;;19.13;12.77;;;;;;;;;;4964267;28;20051;-72
2020/12/08 11:05:36;;;;;;;20.40;12.70;;;;;;;;;;4962172;28;20055;-72
2020/12/08 11:08:02;;;;;;;21.27;13.38;;;;;;;;;;4961367;28;20119;-72
2020/12/08 11:10:28;;;;;;;22.90;13.75;;;;;;;;;;4965415;28;20080;-73
2020/12/08 11:12:55;;;;;;;22.42;13.50;;;;;;;;;;4963075;28;20042;-72
2020/12/08 11:15:21;;;;;;;22.08;13.50;;;;;;;;;;4961952;28;20467;-73
2020/12/08 11:17:47;;;;;;;21.10;12.93;;;;;;;;;;4967055;28;20054;-71
2020/12/08 11:20:13;;;;;;;19.40;11.90;;;;;;;;;;4962656;28;20070;-71
2020/12/08 11:22:40;;;;;;;20.33;12.73;;;;;;;;;;4960263;28;20047;-71
2020/12/08 11:25:06;;;;;;;19.60;11.95;;;;;;;;;;4962809;28;20457;-70
2020/12/08 11:27:32;;;;;;;20.55;12.07;;;;;;;;;;4954940;28;20404;-70
2020/12/08 11:29:58;;;;;;;17.55;11.75;;;;;;;;;;4960513;28;20050;-70
2020/12/08 11:32:25;;;;;;;19.60;12.15;;;;;;;;;;4961611;28;20055;-70
2020/12/08 11:34:51;;;;;;;18.83;11.82;;;;;;;;;;4960416;28;20506;-69
2020/12/08 11:37:18;;;;;;;20.83;12.00;;;;;;;;;;4958149;28;20114;-69
2020/12/08 11:39:44;;;;;;;20.55;12.90;;;;;;;;;;4959870;28;20465;-70
2020/12/08 11:42:13;;;;;;;20.75;12.73;;;;;;;;;;4960965;28;20082;-70
2020/12/08 11:44:40;;;;;;;20.75;12.65;;;;;;;;;;4961904;28;20107;-70
2020/12/08 11:47:09;;;;;;;20.73;12.35;;;;;;;;;;4960558;28;20506;-71
2020/12/08 11:49:36;;;;;;;20.25;11.82;;;;;;;;;;4959511;28;20079;-72
2020/12/08 11:52:05;;;;;;;19.90;12.30;;;;;;;;;;4959338;28;20055;-70
2020/12/08 11:54:31;;;;;;;20.35;12.95;;;;;;;;;;4959493;28;20079;-74
2020/12/08 11:56:58;;;;;;;18.60;12.43;;;;;;;;;;4961024;28;20055;-75
2020/12/08 11:59:24;;;;;;;18.92;11.82;;;;;;;;;;4957414;28;20066;-70
2020/12/08 12:01:50;;;;;;;20.02;13.30;;;;;;;;;;4962675;28;20141;-71
2020/12/08 12:04:17;;;;;;;19.92;11.50;;;;;;;;;;4958688;28;20066;-69
2020/12/08 12:09:13;;;;;;;18.38;10.93;;;;;;;;;;4960503;28;20501;-62
2020/12/08 12:11:39;;;;;;;17.98;11.07;;;;;;;;;;4948918;28;20054;-66
2020/12/08 12:14:06;;;;;;;17.85;11.77;;;;;;;;;;4946324;28;20066;-62
2020/12/08 12:16:32;;;;;;;16.55;11.05;;;;;;;;;;4945071;28;20558;-62
2020/12/08 12:18:58;;;;;;;18.52;12.40;;;;;;;;;;4944759;28;20078;-64
2020/12/08 12:21:25;;;;;;;18.98;11.95;;;;;;;;;;4948573;28;20054;-67
2020/12/08 12:23:51;;;;;;;17.80;11.95;;;;;;;;;;4942889;28;20054;-66
2020/12/08 12:26:21;;;;;;;20.10;12.77;;;;;;;;;;4943439;28;20063;-67
2020/12/08 12:28:49;;;;;;;20.02;12.65;;;;;;;;;;4944213;28;20125;-70
2020/12/08 12:31:15;;;;;;;19.33;12.88;;;;;;;;;;4942645;29;20048;-72
2020/12/08 12:33:41;;;;;;;20.60;13.32;;;;;;;;;;4961245;28;20047;-69
2020/12/08 12:36:08;;;;;;;19.48;12.90;;;;;;;;;;4944007;28;20054;-68
2020/12/08 12:38:34;;;;;;;20.00;12.88;;;;;;;;;;4950539;28;20397;-67
2020/12/08 12:41:00;;;;;;;18.85;11.95;;;;;;;;;;4958628;28;20408;-67
2020/12/08 12:43:26;;;;;;;22.08;13.30;;;;;;;;;;4942430;28;20059;-67
2020/12/08 12:45:52;;;;;;;18.45;12.07;;;;;;;;;;4948422;28;20049;-66
2020/12/08 12:48:18;;;;;;;19.27;12.43;;;;;;;;;;4944046;28;20062;-66
2020/12/08 12:50:45;;;;;;;19.50;13.07;;;;;;;;;;4943674;28;20051;-66
2020/12/08 12:53:11;;;;;;;20.75;12.50;;;;;;;;;;4942771;28;20495;-66
2020/12/08 12:55:38;;;;;;;20.33;12.95;;;;;;;;;;4945107;28;20051;-66
2020/12/08 12:58:05;;;;;;;19.45;13.07;;;;;;;;;;4960399;28;20055;-66
2020/12/08 13:00:32;;;;;;;21.70;12.95;;;;;;;;;;4941662;28;20138;-66
2020/12/08 13:02:59;;;;;;;21.33;13.63;;;;;;;;;;4931757;28;20082;-67
2020/12/08 13:05:25;;;;;;;19.42;12.63;;;;;;;;;;4936493;28;20498;-68
2020/12/08 13:07:51;;;;;;;21.52;13.30;;;;;;;;;;4944191;28;20050;-66
2020/12/08 13:10:18;;;;;;;21.65;13.32;;;;;;;;;;4941673;28;20809;-68
2020/12/08 13:12:44;;;;;;;22.52;13.70;;;;;;;;;;4933215;28;20078;-69
2020/12/08 13:15:10;;;;;;;20.13;12.93;;;;;;;;;;4942542;28;20051;-66
2020/12/08 13:17:37;;;;;;;19.52;12.20;;;;;;;;;;4947735;28;20399;-66
2020/12/08 13:20:03;;;;;;;22.67;14.30;;;;;;;;;;4941318;28;20050;-67
2020/12/08 13:22:30;;;;;;;21.10;12.65;;;;;;;;;;4939327;28;20426;-67
2020/12/08 13:24:56;;;;;;;19.35;12.80;;;;;;;;;;4939586;28;20051;-66
2020/12/08 13:27:23;;;;;;;21.02;13.50;;;;;;;;;;4945568;28;20051;-70
2020/12/08 13:29:49;;;;;;;21.45;12.93;;;;;;;;;;4943320;28;20046;-69
2020/12/08 13:32:15;;;;;;;17.67;12.35;;;;;;;;;;4938083;28;20427;-69
2020/12/08 13:34:42;;;;;;;20.90;13.48;;;;;;;;;;4947327;28;20395;-68
2020/12/08 13:37:08;;;;;;;20.88;12.75;;;;;;;;;;4940715;28;20549;-70
2020/12/08 13:39:34;;;;;;;21.25;13.35;;;;;;;;;;4941258;28;20054;-66
2020/12/08 13:42:00;;;;;;;18.92;12.30;;;;;;;;;;4944049;28;20047;-66
2020/12/08 13:44:27;;;;;;;18.80;12.07;;;;;;;;;;4940233;28;20073;-66
2020/12/08 13:46:57;;;;;;;21.38;13.23;;;;;;;;;;4939764;28;20483;-66
2020/12/08 13:49:24;;;;;;;20.33;13.13;;;;;;;;;;4941001;28;20051;-64
2020/12/08 13:51:50;;;;;;;19.25;11.55;;;;;;;;;;4938924;28;20512;-64
2020/12/08 13:54:17;;;;;;;19.05;12.60;;;;;;;;;;4943992;28;20067;-65
2020/12/08 13:56:44;;;;;;;22.27;13.60;;;;;;;;;;4938970;28;20051;-64
2020/12/08 13:59:11;;;;;;;19.73;13.15;;;;;;;;;;4943133;28;20055;-65
2020/12/08 14:01:46;;;;;;;21.33;13.65;;;;;;;;;;4939832;28;20134;-65
2020/12/08 14:04:13;;;;;;;20.50;13.48;;;;;;;;;;4940721;28;20558;-64
2020/12/08 14:06:43;;;;;;;20.83;12.88;;;;;;;;;;4939829;28;20054;-64
2020/12/08 14:09:10;;;;;;;23.08;13.32;;;;;;;;;;4938386;28;20062;-64
2020/12/08 14:11:36;;;;;;;21.05;13.95;;;;;;;;;;4942045;28;20043;-68
2020/12/08 14:14:02;;;;;;;20.27;13.15;;;;;;;;;;4942163;28;20051;-68
2020/12/08 14:16:29;;;;;;;20.10;12.60;;;;;;;;;;4941723;28;20403;-68
2020/12/08 14:18:56;;;;;;;21.30;13.25;;;;;;;;;;4932669;28;20062;-68
2020/12/08 14:21:24;;;;;;;24.25;13.70;;;;;;;;;;4943756;28;20059;-68
2020/12/08 14:23:50;;;;;;;21.60;12.90;;;;;;;;;;4939640;28;20051;-67
2020/12/08 14:26:21;;;;;;;20.38;12.50;;;;;;;;;;4938740;28;20078;-68
2020/12/08 14:28:47;;;;;;;21.13;12.80;;;;;;;;;;4942527;28;20054;-68
2020/12/08 14:31:14;;;;;;;23.70;13.88;;;;;;;;;;4942754;28;20521;-67
2020/12/08 14:33:40;;;;;;;21.80;13.65;;;;;;;;;;4945419;28;20568;-67
2020/12/08 14:36:08;;;;;;;20.77;12.18;;;;;;;;;;4942379;28;20426;-68
2020/12/08 14:38:34;;;;;;;21.27;13.15;;;;;;;;;;4948067;28;20066;-68
2020/12/08 14:41:00;;;;;;;22.70;13.60;;;;;;;;;;4945596;28;20564;-67
2020/12/08 14:43:26;;;;;;;24.98;14.02;;;;;;;;;;4945002;28;20038;-69
2020/12/08 14:45:53;;;;;;;22.40;13.40;;;;;;;;;;4935167;28;20053;-68